createdAt,value
2018-07-22T15:45:49.732Z,3760
2018-07-22T15:47:04.242Z,3788
2018-07-22T15:48:19.046Z,3712
2018-07-22T15:49:33.428Z,3596
2018-07-22T15:50:48.386Z,3580
2018-07-22T15:52:02.918Z,3660
2018-07-22T15:53:17.443Z,3800
2018-07-22T15:54:31.980Z,3900
2018-07-22T15:55:47.404Z,3828
2018-07-22T15:57:01.685Z,3656
2018-07-22T15:58:16.703Z,3424
2018-07-22T15:59:31.490Z,3224
2018-07-22T16:00:45.970Z,3104
2018-07-22T16:02:00.510Z,3088
2018-07-22T16:03:15.035Z,3100
2018-07-22T16:04:29.294Z,3196
2018-07-22T16:05:43.734Z,3272
2018-07-22T16:06:58.901Z,3224
2018-07-22T16:08:13.654Z,3104
2018-07-22T16:09:28.390Z,2980
2018-07-22T16:10:43.156Z,2860
2018-07-22T16:11:57.419Z,2776
2018-07-22T16:13:12.167Z,2752
2018-07-22T16:14:26.374Z,2752
2018-07-22T16:15:40.934Z,2752
2018-07-22T16:16:55.936Z,2760
2018-07-22T16:18:10.187Z,2772
2018-07-22T16:19:24.713Z,2780
2018-07-22T16:20:39.070Z,2756
2018-07-22T16:21:53.697Z,2708
2018-07-22T16:23:08.803Z,2696
2018-07-22T16:24:23.940Z,2720
2018-07-22T16:25:38.150Z,2756
2018-07-22T16:26:53.109Z,2784
2018-07-22T16:28:08.093Z,2832
2018-07-22T16:29:22.557Z,2900
2018-07-22T16:30:36.840Z,2908
2018-07-22T16:31:51.573Z,2976
2018-07-22T16:33:05.773Z,3048
2018-07-22T16:34:20.548Z,3088
2018-07-22T16:35:35.264Z,3100
2018-07-22T16:36:50.092Z,3056
2018-07-22T16:38:05.129Z,2980
2018-07-22T16:39:19.364Z,2936
2018-07-22T16:40:33.575Z,2904
2018-07-22T16:41:48.017Z,2804
2018-07-22T16:43:02.744Z,2664
2018-07-22T16:44:16.972Z,2488
2018-07-22T16:45:31.706Z,2360
2018-07-22T16:46:46.391Z,2208
2018-07-22T16:48:00.964Z,2036
2018-07-22T16:49:14.934Z,1912
2018-07-22T16:50:29.477Z,1836
2018-07-22T16:51:43.979Z,1808
2018-07-22T16:52:58.718Z,1848
2018-07-22T16:54:13.477Z,1948
2018-07-22T16:55:28.501Z,1996
2018-07-22T16:56:43.007Z,2024
2018-07-22T16:57:57.064Z,2032
2018-07-22T16:59:11.810Z,2052
2018-07-22T17:00:26.344Z,2012
2018-07-22T17:01:40.859Z,2004
2018-07-22T17:02:55.452Z,2008
2018-07-22T17:04:09.989Z,2020
2018-07-22T17:05:25.071Z,2016
2018-07-22T17:06:39.572Z,1976
2018-07-22T17:07:54.072Z,1912
2018-07-22T17:09:08.772Z,1916
2018-07-22T17:10:23.023Z,1920
2018-07-22T17:11:37.723Z,1956
2018-07-22T17:12:52.307Z,1960
2018-07-22T17:14:06.519Z,1924
2018-07-22T17:15:20.972Z,1856
2018-07-22T17:16:35.179Z,1816
2018-07-22T17:17:49.528Z,1800
2018-07-22T17:19:03.765Z,1784
2018-07-22T17:20:18.250Z,1768
2018-07-22T17:21:32.924Z,1740
2018-07-22T17:22:47.678Z,1704
2018-07-22T17:24:02.598Z,1676
2018-07-22T17:25:17.042Z,1656
2018-07-22T17:26:31.623Z,1644
2018-07-22T17:27:46.088Z,1640
2018-07-22T17:29:00.712Z,1668
2018-07-22T17:30:15.486Z,1696
2018-07-22T17:31:30.501Z,1696
2018-07-22T17:32:45.225Z,1668
2018-07-22T17:34:00.106Z,1624
2018-07-22T17:35:14.115Z,1572
2018-07-22T17:36:28.557Z,1524
2018-07-22T17:37:43.528Z,1480
2018-07-22T17:38:58.529Z,1420
2018-07-22T17:40:13.444Z,1340
2018-07-22T17:41:27.932Z,1280
2018-07-22T17:42:42.141Z,1252
2018-07-22T17:43:56.934Z,1240
2018-07-22T17:45:11.454Z,1224
2018-07-22T17:46:26.216Z,1200
2018-07-22T17:47:40.206Z,1180
2018-07-22T17:48:55.072Z,1148
2018-07-22T17:50:09.581Z,1100
2018-07-22T17:51:24.545Z,1052
2018-07-22T17:52:39.048Z,1012
2018-07-22T17:53:53.593Z,972
2018-07-22T17:55:08.119Z,940
2018-07-22T17:56:22.185Z,916
2018-07-22T17:57:37.395Z,884
2018-07-22T17:58:52.052Z,852
2018-07-22T18:00:06.552Z,820
2018-07-22T18:01:21.319Z,788
2018-07-22T18:02:36.051Z,756
2018-07-22T18:03:50.773Z,744
2018-07-22T18:05:05.852Z,744
2018-07-22T18:06:20.353Z,736
2018-07-22T18:07:35.094Z,724
2018-07-22T18:08:49.113Z,712
2018-07-22T18:10:03.155Z,684
2018-07-22T18:11:17.136Z,636
2018-07-22T18:12:31.382Z,592
2018-07-22T18:13:45.633Z,560
2018-07-22T18:15:00.299Z,548
2018-07-22T18:16:14.849Z,536
2018-07-22T18:17:29.597Z,536
2018-07-22T18:18:44.331Z,540
2018-07-22T18:20:00.083Z,540
2018-07-22T18:21:14.837Z,544
2018-07-22T18:22:29.323Z,540
2018-07-22T18:23:44.076Z,544
2018-07-22T18:24:59.447Z,556
2018-07-22T18:26:14.167Z,564
2018-07-22T18:27:28.386Z,568
2018-07-22T18:28:43.311Z,576
2018-07-22T18:29:58.092Z,576
2018-07-22T18:31:18.704Z,568
2018-07-22T18:32:33.704Z,560
2018-07-22T18:33:48.446Z,544
2018-07-22T18:35:03.218Z,524
2018-07-22T18:36:17.188Z,504
2018-07-22T18:37:31.883Z,488
2018-07-22T18:38:46.644Z,460
2018-07-22T18:40:00.465Z,440
2018-07-22T18:41:14.752Z,420
2018-07-22T18:42:29.983Z,404
2018-07-22T18:43:44.543Z,384
2018-07-22T18:44:58.964Z,368
2018-07-22T18:46:13.268Z,352
2018-07-22T18:47:27.353Z,336
2018-07-22T18:48:43.351Z,324
2018-07-22T18:49:58.662Z,308
2018-07-22T18:51:13.269Z,296
2018-07-22T18:52:27.896Z,288
2018-07-22T18:53:43.055Z,280
2018-07-22T18:54:58.309Z,268
2018-07-22T18:56:12.795Z,256
2018-07-22T18:57:27.637Z,240
2018-07-22T18:58:42.433Z,220
2018-07-22T18:59:57.109Z,204
2018-07-22T19:01:11.607Z,192
2018-07-22T19:02:26.401Z,180
2018-07-22T19:03:41.048Z,168
2018-07-22T19:05:21.249Z,160
2018-07-22T19:06:35.830Z,148
2018-07-22T19:07:50.575Z,144
2018-07-22T19:09:05.390Z,136
2018-07-22T19:10:20.040Z,128
2018-07-22T19:11:34.217Z,120
2018-07-22T19:12:48.402Z,112
2018-07-22T19:14:03.348Z,104
2018-07-22T19:15:17.584Z,104
2018-07-22T19:16:31.788Z,96
2018-07-22T19:17:46.278Z,92
2018-07-22T19:19:01.091Z,84
2018-07-22T19:20:15.685Z,76
2018-07-22T19:21:29.963Z,72
2018-07-22T19:22:44.959Z,64
2018-07-22T19:23:59.928Z,56
2018-07-22T19:25:14.779Z,48
2018-07-22T19:26:29.550Z,44
2018-07-22T19:27:44.184Z,36
2018-07-22T19:28:58.657Z,32
2018-07-22T19:30:14.320Z,28
2018-07-22T19:31:28.551Z,24
2018-07-22T19:32:43.389Z,20
2018-07-22T19:33:58.135Z,20
2018-07-22T19:35:12.117Z,16
2018-07-22T19:36:26.413Z,16
2018-07-22T19:37:41.371Z,12
2018-07-22T19:38:55.872Z,8
2018-07-22T19:40:11.164Z,8
2018-07-22T19:41:25.750Z,8
2018-07-22T19:42:40.787Z,8
2018-07-22T19:43:55.072Z,4
2018-07-22T19:45:09.589Z,4
2018-07-22T19:46:24.240Z,4
2018-07-22T19:47:38.728Z,4
2018-07-22T19:48:53.250Z,4
2018-07-22T19:50:07.203Z,0
2018-07-22T19:51:22.143Z,0
2018-07-22T19:52:36.888Z,4
2018-07-22T19:53:50.925Z,0
2018-07-22T19:55:05.631Z,0
2018-07-22T19:56:20.653Z,0
2018-07-22T19:57:35.615Z,0
2018-07-22T19:58:50.548Z,0
2018-07-22T20:00:05.234Z,0
2018-07-22T20:01:19.992Z,0
2018-07-22T20:02:34.935Z,0
2018-07-22T20:03:48.636Z,0
2018-07-22T20:05:02.911Z,0
2018-07-22T20:06:17.282Z,0
2018-07-22T20:07:32.246Z,0
2018-07-22T20:08:46.711Z,0
2018-07-22T20:10:00.927Z,0
2018-07-22T20:11:15.688Z,0
2018-07-22T20:12:30.264Z,0
2018-07-22T20:13:44.818Z,0
2018-07-22T20:14:59.243Z,0
2018-07-22T20:16:13.946Z,0
2018-07-22T20:17:28.272Z,0
2018-07-22T20:18:42.758Z,0
2018-07-22T20:19:57.731Z,0
2018-07-22T20:21:12.482Z,0
2018-07-22T20:22:27.558Z,0
2018-07-22T20:23:42.340Z,0
2018-07-22T20:24:56.015Z,0
2018-07-22T20:26:10.984Z,0
2018-07-22T20:27:25.712Z,0
2018-07-22T20:28:40.165Z,0
2018-07-22T20:29:54.888Z,0
2018-07-22T20:31:09.103Z,0
2018-07-22T20:32:23.680Z,0
2018-07-22T20:33:38.383Z,0
2018-07-22T20:34:53.085Z,0
2018-07-22T20:36:07.937Z,0
2018-07-22T20:37:22.928Z,0
2018-07-22T20:38:37.648Z,0
2018-07-22T20:39:51.892Z,0
2018-07-22T20:41:07.054Z,0
2018-07-22T20:42:21.731Z,0
2018-07-22T20:43:36.114Z,0
2018-07-22T20:44:50.044Z,0
2018-07-22T20:46:04.722Z,0
2018-07-22T20:47:19.185Z,0
2018-07-22T20:48:33.991Z,0
2018-07-22T20:49:48.217Z,0
2018-07-22T20:51:03.081Z,0
2018-07-22T20:52:17.058Z,0
2018-07-22T20:53:31.448Z,0
2018-07-22T20:54:45.953Z,0
2018-07-22T20:56:00.423Z,0
2018-07-22T20:57:14.953Z,0
2018-07-22T21:27:29.583Z,0
2018-07-22T21:28:44.084Z,0
2018-07-22T21:29:58.403Z,0
2018-07-22T21:31:12.714Z,0
2018-07-22T21:32:27.470Z,0
2018-07-22T21:33:42.310Z,0
2018-07-22T21:34:56.775Z,0
2018-07-22T21:36:11.575Z,0
2018-07-22T21:37:26.311Z,0
2018-07-22T21:38:40.996Z,0
2018-07-22T21:39:54.959Z,0
2018-07-22T21:41:09.954Z,0
2018-07-22T21:42:23.958Z,0
2018-07-22T21:43:38.378Z,0
2018-07-22T21:44:53.153Z,0
2018-07-22T21:46:07.825Z,0
2018-07-22T21:47:22.597Z,0
2018-07-22T21:48:37.116Z,0
2018-07-22T21:49:51.626Z,0
2018-07-22T21:51:05.861Z,0
2018-07-22T21:52:20.639Z,0
2018-07-22T21:53:34.852Z,0
2018-07-22T21:54:49.562Z,0
2018-07-22T21:56:04.275Z,0
2018-07-22T21:57:19.315Z,0
2018-07-22T21:58:34.173Z,0
2018-07-22T21:59:48.615Z,0
2018-07-22T22:01:03.078Z,0
2018-07-22T22:02:17.338Z,0
2018-07-22T22:03:32.041Z,0
2018-07-22T22:04:46.770Z,0
2018-07-22T22:06:01.740Z,0
2018-07-22T22:07:16.131Z,0
2018-07-22T22:08:31.105Z,0
2018-07-22T22:09:45.288Z,0
2018-07-22T22:10:59.020Z,0
2018-07-22T22:12:13.706Z,0
2018-07-22T22:13:28.504Z,0
2018-07-22T22:14:43.474Z,0
2018-07-22T22:15:58.162Z,0
2018-07-22T22:17:12.735Z,0
2018-07-22T22:18:27.774Z,0
2018-07-22T22:20:51.583Z,0
2018-07-22T22:22:06.007Z,0
2018-07-22T22:23:20.052Z,0
2018-07-22T22:24:34.755Z,0
2018-07-22T22:25:49.831Z,0
2018-07-22T22:27:04.762Z,0
2018-07-22T22:28:19.851Z,0
2018-07-22T22:29:34.507Z,0
2018-07-22T22:30:48.718Z,0
2018-07-22T22:32:03.457Z,0
2018-07-22T22:33:18.346Z,0
2018-07-22T22:34:32.783Z,0
2018-07-22T22:35:47.447Z,0
2018-07-22T22:37:02.590Z,0
2018-07-22T22:38:17.529Z,0
2018-07-22T22:39:32.480Z,0
2018-07-22T22:40:46.677Z,0
2018-07-22T22:42:01.178Z,0
2018-07-22T22:43:15.785Z,0
2018-07-22T22:44:29.459Z,0
2018-07-22T22:45:44.337Z,0
2018-07-22T22:46:58.496Z,0
2018-07-22T22:48:12.691Z,0
2018-07-22T22:49:27.028Z,0
2018-07-22T22:50:41.408Z,0
2018-07-22T22:51:56.117Z,0
2018-07-22T22:53:11.141Z,0
2018-07-22T22:54:25.234Z,0
2018-07-22T22:55:39.447Z,0
2018-07-22T22:56:53.647Z,0
2018-07-22T22:58:07.911Z,0
2018-07-22T22:59:23.050Z,0
2018-07-22T23:00:37.224Z,0
2018-07-22T23:01:51.400Z,0
2018-07-22T23:03:06.108Z,0
2018-07-22T23:04:20.907Z,0
2018-07-22T23:05:35.344Z,0
2018-07-22T23:06:50.028Z,0
2018-07-22T23:08:04.708Z,0
2018-07-22T23:09:19.217Z,0
2018-07-22T23:10:33.410Z,0
2018-07-22T23:11:48.358Z,0
2018-07-22T23:13:02.791Z,0
2018-07-22T23:14:16.749Z,0
2018-07-22T23:15:31.239Z,0
2018-07-22T23:16:45.901Z,0
2018-07-22T23:17:59.814Z,0
2018-07-22T23:19:14.754Z,0
2018-07-22T23:20:28.980Z,0
2018-07-22T23:21:43.654Z,0
2018-07-22T23:22:58.631Z,0
2018-07-22T23:24:13.062Z,0
2018-07-22T23:25:27.817Z,0
2018-07-22T23:26:42.508Z,0
2018-07-22T23:27:56.440Z,0
2018-07-22T23:29:10.628Z,0
2018-07-22T23:30:25.244Z,0
2018-07-22T23:31:39.732Z,0
2018-07-22T23:32:54.183Z,0
2018-07-22T23:34:08.355Z,0
2018-07-22T23:35:23.305Z,0
2018-07-22T23:36:38.250Z,0
2018-07-22T23:37:52.432Z,0
2018-07-22T23:39:07.119Z,0
2018-07-22T23:40:21.569Z,0
2018-07-22T23:41:35.814Z,0
2018-07-22T23:42:50.501Z,0
2018-07-22T23:44:04.685Z,0
2018-07-22T23:45:19.640Z,0
2018-07-22T23:46:34.081Z,0
2018-07-22T23:47:48.728Z,0
2018-07-22T23:49:03.162Z,0
2018-07-22T23:50:17.645Z,0
2018-07-22T23:51:32.084Z,0
2018-07-22T23:52:46.770Z,0
2018-07-22T23:54:01.283Z,0
2018-07-22T23:55:15.457Z,0
2018-07-22T23:56:30.383Z,0
2018-07-22T23:57:44.315Z,0
2018-07-22T23:58:58.739Z,0
